Time;durP1;ratioP1;P1;durP2;ratioP2;P2;SDS_P1;SDS_P2;PMS_P1;PMS_P2;Temp;Humidity;BMP_temperature;BMP_pressure;BME280_temperature;BME280_humidity;BME280_pressure;Samples;Min_cycle;Max_cycle;Signal;HPM_P1;HPM_P2
2023/12/10 00:00:46;;;;;;;0.30;0.30;;;8.50;99.90;;;;;;6182155;23;20012;-64
2023/12/10 00:03:12;;;;;;;0.20;0.20;;;8.40;99.90;;;;;;6181312;23;20021;-65
2023/12/10 00:05:38;;;;;;;0.10;0.10;;;8.40;99.90;;;;;;6182057;23;20520;-64
2023/12/10 00:08:03;;;;;;;1.23;0.68;;;8.30;99.90;;;;;;6183400;23;20025;-64
2023/12/10 00:10:29;;;;;;;6.68;4.63;;;8.30;99.90;;;;;;6183631;23;20048;-65
2023/12/10 00:12:54;;;;;;;2.60;0.77;;;8.40;99.90;;;;;;6184505;23;20024;-66
2023/12/10 00:15:20;;;;;;;0.10;0.10;;;8.30;99.90;;;;;;6209665;23;20009;-64
2023/12/10 00:17:45;;;;;;;10.05;1.02;;;8.30;99.90;;;;;;6184560;23;20205;-66
2023/12/10 00:20:11;;;;;;;0.85;0.20;;;8.30;99.90;;;;;;6157310;23;20747;-66
2023/12/10 00:22:37;;;;;;;2.40;0.68;;;8.30;99.90;;;;;;6184655;23;20123;-65
2023/12/10 00:25:03;;;;;;;0.35;0.35;;;8.30;99.90;;;;;;6181776;23;20016;-66
2023/12/10 00:27:28;;;;;;;2.97;0.22;;;8.30;99.90;;;;;;6180756;23;20012;-65
2023/12/10 00:29:54;;;;;;;10.13;1.63;;;8.40;99.90;;;;;;6180919;23;20416;-67
2023/12/10 00:32:19;;;;;;;1.10;1.10;;;8.50;99.90;;;;;;6184748;23;20436;-65
2023/12/10 00:34:45;;;;;;;1.17;0.70;;;8.50;99.90;;;;;;6180007;23;20025;-69
2023/12/10 00:37:10;;;;;;;2.92;1.42;;;8.60;99.90;;;;;;6183846;23;20059;-67
2023/12/10 00:39:37;;;;;;;0.55;0.40;;;8.60;99.90;;;;;;6184252;23;20051;-68
2023/12/10 00:42:03;;;;;;;0.95;0.95;;;8.60;99.90;;;;;;6185616;23;20023;-70
2023/12/10 00:44:29;;;;;;;4.03;1.58;;;8.50;99.90;;;;;;6182896;23;20020;-68
2023/12/10 00:46:54;;;;;;;0.57;0.57;;;8.50;99.90;;;;;;6185920;23;20431;-68
2023/12/10 00:49:20;;;;;;;0.20;0.17;;;8.40;99.90;;;;;;6184373;23;20024;-66
2023/12/10 00:51:45;;;;;;;0.10;0.10;;;8.40;99.90;;;;;;6182282;23;20020;-66
2023/12/10 00:54:11;;;;;;;2.45;0.95;;;8.30;99.90;;;;;;6182780;23;20075;-68
2023/12/10 00:56:36;;;;;;;0.10;0.10;;;8.30;99.90;;;;;;6212750;23;20009;-67
2023/12/10 00:59:02;;;;;;;0.10;0.10;;;8.20;99.90;;;;;;6179574;23;20020;-67
2023/12/10 01:01:27;;;;;;;0.10;0.10;;;8.10;99.90;;;;;;6210856;23;20013;-66
2023/12/10 01:03:53;;;;;;;0.13;0.13;;;8.10;99.90;;;;;;6208997;23;20085;-66
2023/12/10 01:06:19;;;;;;;0.20;0.20;;;8.10;99.90;;;;;;6184110;23;20432;-66
2023/12/10 01:08:44;;;;;;;0.22;0.22;;;8.10;99.90;;;;;;6183825;23;20012;-67
2023/12/10 01:11:10;;;;;;;1.65;0.60;;;8.00;99.90;;;;;;6183700;23;20360;-67
2023/12/10 01:13:35;;;;;;;2.55;0.77;;;8.00;99.90;;;;;;6210536;23;20012;-66
2023/12/10 01:16:03;;;;;;;0.10;0.10;;;8.00;99.90;;;;;;6179806;23;20012;-68
2023/12/10 01:18:29;;;;;;;0.40;0.22;;;8.00;99.90;;;;;;6182372;23;20055;-66
2023/12/10 01:20:54;;;;;;;0.77;0.77;;;8.00;99.90;;;;;;6181357;23;20016;-67
2023/12/10 01:23:20;;;;;;;0.38;0.35;;;8.00;99.90;;;;;;6185425;23;20319;-65
2023/12/10 01:25:45;;;;;;;1.55;0.30;;;8.00;99.90;;;;;;6156989;23;20444;-66
2023/12/10 01:28:12;;;;;;;1.85;1.75;;;7.90;99.90;;;;;;6179240;23;20024;-66
2023/12/10 01:30:38;;;;;;;0.10;0.10;;;7.90;99.90;;;;;;6182494;23;20017;-65
2023/12/10 01:33:04;;;;;;;0.10;0.10;;;7.90;99.90;;;;;;6208481;23;20058;-66
2023/12/10 01:35:29;;;;;;;1.63;0.73;;;7.90;99.90;;;;;;6182809;23;20074;-66
2023/12/10 01:37:56;;;;;;;1.75;0.32;;;7.90;99.90;;;;;;6184425;23;20439;-67
2023/12/10 01:40:22;;;;;;;0.30;0.30;;;7.90;99.90;;;;;;6178186;23;20345;-67
2023/12/10 01:42:48;;;;;;;0.30;0.30;;;7.90;99.90;;;;;;6210089;23;20116;-66
2023/12/10 01:45:14;;;;;;;0.68;0.57;;;7.90;99.90;;;;;;6209435;23;20067;-64
2023/12/10 01:47:44;;;;;;;1.27;1.17;;;7.90;99.90;;;;;;6210959;23;20016;-67
2023/12/10 01:50:11;;;;;;;0.80;0.50;;;7.90;99.90;;;;;;6182374;23;20028;-68
2023/12/10 01:52:38;;;;;;;2.28;0.30;;;7.90;99.90;;;;;;6183849;23;20012;-66
2023/12/10 01:55:05;;;;;;;2.20;1.95;;;7.90;99.90;;;;;;6182709;23;20344;-66
2023/12/10 01:57:32;;;;;;;2.17;1.52;;;7.90;99.90;;;;;;6183114;23;20012;-65
2023/12/10 01:59:59;;;;;;;0.55;0.55;;;7.90;99.90;;;;;;6183568;23;20024;-66
2023/12/10 02:02:25;;;;;;;0.55;0.55;;;7.80;99.90;;;;;;6181264;23;20016;-66
2023/12/10 02:04:54;;;;;;;0.10;0.10;;;7.90;99.90;;;;;;6206208;23;20099;-65
2023/12/10 02:07:23;;;;;;;23.67;1.95;;;7.90;99.90;;;;;;6182919;23;20019;-67
2023/12/10 02:09:50;;;;;;;0.65;0.40;;;7.80;99.90;;;;;;6181715;23;20428;-66
2023/12/10 02:12:19;;;;;;;0.63;0.63;;;7.80;99.90;;;;;;6184220;23;20020;-66
2023/12/10 02:14:44;;;;;;;1.35;0.98;;;7.90;99.90;;;;;;6182043;23;20024;-66
2023/12/10 02:17:10;;;;;;;0.20;0.20;;;7.90;99.90;;;;;;6185158;23;20016;-67
2023/12/10 02:19:36;;;;;;;2.38;2.17;;;7.80;99.90;;;;;;6183037;23;20115;-64
2023/12/10 02:22:03;;;;;;;0.63;0.63;;;7.80;99.90;;;;;;6180702;23;20020;-65
2023/12/10 02:24:41;;;;;;;0.20;0.20;;;7.90;99.90;;;;;;6207079;23;20016;-64
2023/12/10 02:27:07;;;;;;;0.13;0.13;;;7.90;99.90;;;;;;6208696;23;20383;-66
2023/12/10 02:29:33;;;;;;;0.10;0.10;;;7.80;99.90;;;;;;6181395;23;20048;-64
2023/12/10 02:31:58;;;;;;;0.75;0.43;;;7.80;99.90;;;;;;6210126;23;20004;-65
2023/12/10 02:34:24;;;;;;;0.10;0.10;;;7.80;99.90;;;;;;6181312;23;20017;-67
2023/12/10 02:36:50;;;;;;;2.50;0.57;;;7.90;99.90;;;;;;6184790;23;20016;-67
2023/12/10 02:39:15;;;;;;;0.17;0.17;;;7.80;99.90;;;;;;6181637;23;20620;-65
2023/12/10 02:41:41;;;;;;;0.10;0.10;;;7.80;99.90;;;;;;6181776;23;20452;-66
2023/12/10 02:44:06;;;;;;;0.20;0.20;;;7.80;99.90;;;;;;6158987;23;20436;-66
2023/12/10 02:46:32;;;;;;;1.00;0.88;;;7.80;99.90;;;;;;6206901;23;20032;-65
2023/12/10 02:48:57;;;;;;;0.22;0.22;;;7.80;99.90;;;;;;6211097;23;20012;-68
2023/12/10 02:51:23;;;;;;;0.20;0.20;;;7.80;99.90;;;;;;6180651;23;20504;-66
2023/12/10 02:53:49;;;;;;;0.52;0.30;;;7.80;99.90;;;;;;6180912;23;20098;-64
2023/12/10 02:56:14;;;;;;;1.10;0.47;;;7.80;99.90;;;;;;6181950;23;20336;-67
2023/12/10 02:58:40;;;;;;;0.82;0.80;;;7.80;99.90;;;;;;6183006;23;20063;-64
2023/12/10 03:01:05;;;;;;;0.40;0.40;;;7.70;99.90;;;;;;6182060;23;20024;-65
2023/12/10 03:03:31;;;;;;;0.43;0.30;;;7.70;99.90;;;;;;6181511;23;20016;-66
2023/12/10 03:05:57;;;;;;;1.65;0.52;;;7.80;99.90;;;;;;6180430;23;20028;-66
2023/12/10 03:08:22;;;;;;;4.47;1.02;;;7.80;99.90;;;;;;6180836;23;20024;-66
2023/12/10 03:10:48;;;;;;;0.20;0.20;;;7.70;99.90;;;;;;6181643;23;20340;-67
2023/12/10 03:13:13;;;;;;;0.43;0.43;;;7.70;99.90;;;;;;6183827;23;20013;-66
2023/12/10 03:15:39;;;;;;;0.00;0.00;;;7.80;99.90;;;;;;6179366;23;20510;-67
2023/12/10 03:18:05;;;;;;;17.38;0.40;;;7.70;99.90;;;;;;6183077;23;20040;-66
2023/12/10 03:20:31;;;;;;;0.47;0.47;;;7.70;99.90;;;;;;6181457;23;20043;-67
2023/12/10 03:22:56;;;;;;;5.18;1.00;;;7.70;99.90;;;;;;6179773;23;20020;-66
2023/12/10 03:25:22;;;;;;;1.25;0.50;;;7.70;99.90;;;;;;6208142;23;20026;-66
2023/12/10 03:27:48;;;;;;;1.15;1.13;;;7.70;99.90;;;;;;6182159;23;20071;-66
2023/12/10 03:30:14;;;;;;;0.20;0.20;;;7.70;99.90;;;;;;6182022;23;20009;-67
2023/12/10 03:32:39;;;;;;;0.82;0.82;;;7.80;99.90;;;;;;6181797;23;20008;-66
2023/12/10 03:35:05;;;;;;;4.72;0.55;;;7.80;99.90;;;;;;6181214;23;20147;-66
2023/12/10 03:37:31;;;;;;;0.15;0.15;;;7.80;99.90;;;;;;6210300;23;20019;-67
2023/12/10 03:39:56;;;;;;;1.95;0.50;;;7.70;99.90;;;;;;6211961;23;20355;-66
2023/12/10 03:42:22;;;;;;;0.65;0.65;;;7.80;99.90;;;;;;6186368;23;20020;-68
2023/12/10 03:44:48;;;;;;;0.10;0.10;;;7.70;99.90;;;;;;6211752;23;20024;-66
2023/12/10 03:47:13;;;;;;;0.20;0.20;;;7.80;99.90;;;;;;6162192;23;20474;-65
2023/12/10 03:49:39;;;;;;;0.10;0.10;;;7.80;99.90;;;;;;6211331;23;20043;-66
2023/12/10 03:52:05;;;;;;;1.85;1.23;;;7.80;99.90;;;;;;6186244;23;20013;-67
2023/12/10 03:54:30;;;;;;;0.10;0.10;;;7.80;99.90;;;;;;6211342;23;20013;-67
2023/12/10 03:56:56;;;;;;;0.85;0.85;;;7.80;99.90;;;;;;6186286;23;20017;-68
2023/12/10 03:59:21;;;;;;;0.20;0.20;;;7.80;99.90;;;;;;6186133;23;20017;-66
2023/12/10 04:01:47;;;;;;;0.10;0.10;;;7.80;99.90;;;;;;6182575;23;20027;-67
2023/12/10 04:04:12;;;;;;;1.65;0.20;;;7.80;99.90;;;;;;6185329;23;20015;-67
2023/12/10 04:06:42;;;;;;;0.08;0.08;;;7.80;99.90;;;;;;6185531;23;20325;-64
2023/12/10 04:09:08;;;;;;;12.80;1.10;;;7.90;99.90;;;;;;6186503;23;20012;-66
2023/12/10 04:11:34;;;;;;;1.13;0.52;;;7.90;99.90;;;;;;6185276;23;20004;-64
2023/12/10 04:13:59;;;;;;;0.25;0.25;;;7.90;99.90;;;;;;6211947;23;20075;-64
2023/12/10 04:16:30;;;;;;;2.10;0.68;;;7.90;99.90;;;;;;6184842;23;20016;-65
2023/12/10 04:18:56;;;;;;;0.10;0.10;;;7.90;99.90;;;;;;6186611;23;20008;-66
2023/12/10 04:21:23;;;;;;;1.15;1.13;;;8.00;99.90;;;;;;6160946;23;20013;-67
2023/12/10 04:23:49;;;;;;;0.10;0.10;;;8.00;99.90;;;;;;6186364;23;20098;-66
2023/12/10 04:26:15;;;;;;;0.65;0.65;;;8.00;99.90;;;;;;6183989;23;20047;-66
2023/12/10 04:28:42;;;;;;;1.90;0.73;;;8.10;99.90;;;;;;6212137;23;20008;-67
2023/12/10 04:31:08;;;;;;;0.75;0.45;;;8.10;99.90;;;;;;6184680;23;20581;-67
2023/12/10 04:33:34;;;;;;;1.38;1.27;;;8.10;99.90;;;;;;6185328;23;20009;-67
2023/12/10 04:36:01;;;;;;;0.10;0.10;;;8.10;99.90;;;;;;6184920;23;20008;-66
2023/12/10 04:38:28;;;;;;;0.52;0.52;;;8.10;99.90;;;;;;6185111;23;20400;-65
2023/12/10 04:40:54;;;;;;;4.45;0.85;;;8.10;99.90;;;;;;6186451;23;20024;-66
2023/12/10 04:43:20;;;;;;;1.65;0.68;;;8.10;99.90;;;;;;6211522;23;20076;-67
2023/12/10 04:45:46;;;;;;;2.53;0.52;;;8.10;99.90;;;;;;6184288;23;20020;-68
2023/12/10 04:48:15;;;;;;;0.63;0.63;;;8.10;99.90;;;;;;6184191;23;20091;-67
2023/12/10 04:50:41;;;;;;;8.15;0.45;;;8.10;99.90;;;;;;6182027;23;20031;-68
2023/12/10 04:53:07;;;;;;;0.40;0.40;;;8.10;99.90;;;;;;6183468;23;20455;-67
2023/12/10 04:55:32;;;;;;;1.65;0.90;;;8.10;99.90;;;;;;6183106;23;20019;-67
2023/12/10 04:57:58;;;;;;;0.22;0.22;;;8.10;99.90;;;;;;6183320;23;20020;-67
2023/12/10 05:00:24;;;;;;;5.93;1.13;;;8.10;99.90;;;;;;6184792;23;20325;-66
2023/12/10 05:02:50;;;;;;;0.10;0.10;;;8.10;99.90;;;;;;6183097;23;20020;-66
2023/12/10 05:05:16;;;;;;;1.05;0.63;;;8.10;99.90;;;;;;6183245;23;20020;-69
2023/12/10 05:07:42;;;;;;;0.10;0.10;;;8.10;99.90;;;;;;6184496;23;20012;-67
2023/12/10 05:10:08;;;;;;;0.10;0.10;;;8.10;99.90;;;;;;6181376;23;20067;-67
2023/12/10 05:12:34;;;;;;;2.58;0.85;;;8.10;99.90;;;;;;6182800;23;20021;-69
2023/12/10 05:14:59;;;;;;;0.20;0.20;;;8.10;99.90;;;;;;6181860;23;20289;-70
2023/12/10 05:17:25;;;;;;;1.80;0.95;;;8.10;99.90;;;;;;6183668;23;20019;-67
2023/12/10 05:19:50;;;;;;;3.00;0.65;;;8.10;99.90;;;;;;6184612;23;20013;-67
2023/12/10 05:22:16;;;;;;;0.10;0.10;;;8.10;99.90;;;;;;6211342;23;20059;-65
2023/12/10 05:24:42;;;;;;;2.50;0.25;;;8.10;99.90;;;;;;6183174;23;20020;-66
2023/12/10 05:27:08;;;;;;;0.22;0.22;;;8.10;99.90;;;;;;6209100;23;20017;-68
2023/12/10 05:29:34;;;;;;;2.65;0.40;;;8.10;99.90;;;;;;6182846;23;20336;-68
2023/12/10 05:31:59;;;;;;;0.45;0.45;;;8.20;99.90;;;;;;6184669;23;20004;-68
2023/12/10 05:34:25;;;;;;;3.50;0.82;;;8.20;99.90;;;;;;6182143;23;20016;-68
2023/12/10 05:36:50;;;;;;;0.20;0.20;;;8.20;99.90;;;;;;6183444;23;20092;-66
2023/12/10 05:39:16;;;;;;;1.88;0.95;;;8.20;99.90;;;;;;6207672;23;20567;-67
2023/12/10 05:41:41;;;;;;;0.10;0.10;;;8.20;99.90;;;;;;6182763;23;20492;-66
2023/12/10 05:44:07;;;;;;;0.95;0.52;;;8.20;99.90;;;;;;6183985;23;20125;-68
2023/12/10 05:46:33;;;;;;;1.17;1.08;;;8.20;99.90;;;;;;6183304;23;20016;-65
2023/12/10 05:49:00;;;;;;;2.83;0.55;;;8.20;99.90;;;;;;6184394;23;20432;-70
2023/12/10 05:51:25;;;;;;;4.90;1.65;;;8.20;99.90;;;;;;6210648;23;20035;-69
2023/12/10 05:53:51;;;;;;;1.25;0.55;;;8.20;99.90;;;;;;6209030;23;20476;-68
2023/12/10 05:56:17;;;;;;;0.73;0.17;;;8.20;99.90;;;;;;6183652;23;20161;-66
2023/12/10 05:58:43;;;;;;;3.85;0.65;;;8.20;99.90;;;;;;6184635;23;20081;-67
2023/12/10 06:01:08;;;;;;;1.00;0.90;;;8.30;99.90;;;;;;6184411;23;20016;-66
2023/12/10 06:03:34;;;;;;;4.57;1.13;;;8.20;99.90;;;;;;6180657;23;20272;-65
2023/12/10 06:06:00;;;;;;;2.05;0.45;;;8.30;99.90;;;;;;6182698;23;20017;-66
2023/12/10 06:08:25;;;;;;;1.88;0.38;;;8.30;99.90;;;;;;6210524;23;20020;-67
2023/12/10 06:10:51;;;;;;;0.60;0.38;;;8.20;99.90;;;;;;6181827;23;20094;-67
2023/12/10 06:13:18;;;;;;;2.05;0.98;;;8.20;99.90;;;;;;6181862;23;20009;-68
2023/12/10 06:15:45;;;;;;;4.38;3.38;;;8.20;99.90;;;;;;6182120;23;20008;-67
2023/12/10 06:18:11;;;;;;;6.22;0.50;;;8.30;99.90;;;;;;6184557;23;20404;-67
2023/12/10 06:20:36;;;;;;;0.52;0.52;;;8.20;99.90;;;;;;6183767;23;20091;-66
2023/12/10 06:23:02;;;;;;;3.92;0.80;;;8.30;99.90;;;;;;6183418;23;20793;-66
2023/12/10 06:25:28;;;;;;;15.85;2.35;;;8.30;99.90;;;;;;6185112;23;20038;-66
2023/12/10 06:27:56;;;;;;;0.10;0.10;;;8.40;99.90;;;;;;6182603;23;20025;-67
2023/12/10 06:30:22;;;;;;;0.32;0.32;;;8.40;99.90;;;;;;6183839;23;20012;-68
2023/12/10 06:32:48;;;;;;;3.20;0.95;;;8.40;99.90;;;;;;6185149;23;20013;-68
2023/12/10 06:35:14;;;;;;;3.35;1.27;;;8.40;99.90;;;;;;6183128;23;20013;-69
2023/12/10 06:37:40;;;;;;;0.65;0.55;;;8.50;99.90;;;;;;6211362;23;20032;-68
2023/12/10 06:40:06;;;;;;;6.07;0.40;;;8.40;99.90;;;;;;6184845;23;20032;-69
2023/12/10 06:42:33;;;;;;;0.93;0.93;;;8.50;99.90;;;;;;6212460;23;20127;-68
2023/12/10 06:44:59;;;;;;;1.30;0.32;;;8.60;99.90;;;;;;6183503;23;20048;-67
2023/12/10 06:47:24;;;;;;;3.15;1.00;;;8.60;99.90;;;;;;6185289;23;20024;-67
2023/12/10 06:49:50;;;;;;;1.08;0.25;;;8.60;99.90;;;;;;6210564;23;20021;-67
2023/12/10 06:52:16;;;;;;;0.10;0.10;;;8.60;99.90;;;;;;6212767;23;20092;-68
2023/12/10 06:54:43;;;;;;;0.20;0.20;;;8.60;99.90;;;;;;6185687;23;20027;-68
2023/12/10 06:57:09;;;;;;;0.00;0.00;;;8.60;99.90;;;;;;6186704;23;20032;-68
2023/12/10 06:59:34;;;;;;;0.98;0.47;;;8.50;99.90;;;;;;6185322;23;20496;-71
2023/12/10 07:02:00;;;;;;;0.30;0.30;;;8.50;99.90;;;;;;6186528;23;20015;-71
2023/12/10 07:04:25;;;;;;;0.95;0.17;;;8.50;99.90;;;;;;6210293;23;20051;-68
2023/12/10 07:06:51;;;;;;;0.20;0.20;;;8.50;99.90;;;;;;6185089;23;20078;-68
2023/12/10 07:09:18;;;;;;;0.57;0.08;;;8.50;99.90;;;;;;6211391;23;20013;-68
2023/12/10 07:11:44;;;;;;;0.45;0.20;;;8.50;99.90;;;;;;6211230;23;20016;-67
2023/12/10 07:14:09;;;;;;;0.52;0.52;;;8.50;99.90;;;;;;6181338;23;20031;-66
2023/12/10 07:16:35;;;;;;;6.20;0.90;;;8.50;99.90;;;;;;6184367;23;20017;-68
2023/12/10 07:19:00;;;;;;;2.95;0.40;;;8.50;99.90;;;;;;6184174;23;20321;-67
2023/12/10 07:21:26;;;;;;;0.05;0.05;;;8.50;99.90;;;;;;6210714;23;20483;-66
2023/12/10 07:23:52;;;;;;;4.25;0.65;;;8.50;99.90;;;;;;6210454;23;20004;-67
2023/12/10 07:26:24;;;;;;;4.25;1.55;;;8.50;99.90;;;;;;6182988;23;20013;-68
2023/12/10 07:28:51;;;;;;;0.10;0.10;;;8.50;99.90;;;;;;6183714;23;20502;-67
2023/12/10 07:31:20;;;;;;;1.80;0.75;;;8.50;99.90;;;;;;6209445;23;20008;-66
2023/12/10 07:33:45;;;;;;;1.38;1.10;;;8.50;99.90;;;;;;6207846;23;20031;-66
2023/12/10 07:36:11;;;;;;;0.52;0.52;;;8.50;99.90;;;;;;6183428;23;20019;-67
2023/12/10 07:38:38;;;;;;;0.10;0.10;;;8.50;99.90;;;;;;6181559;23;20070;-67
2023/12/10 07:41:04;;;;;;;1.10;0.00;;;8.50;99.90;;;;;;6182539;23;20028;-67
2023/12/10 07:43:33;;;;;;;0.15;0.15;;;8.50;99.90;;;;;;6183780;23;20058;-66
2023/12/10 07:45:59;;;;;;;7.28;0.50;;;8.50;99.90;;;;;;6183531;23;20021;-68
2023/12/10 07:48:25;;;;;;;0.73;0.73;;;8.50;99.90;;;;;;6184412;23;20027;-66
2023/12/10 07:50:50;;;;;;;0.10;0.10;;;8.50;99.90;;;;;;6209333;23;20027;-68
2023/12/10 07:53:17;;;;;;;7.32;0.20;;;8.50;99.90;;;;;;6184542;23;20096;-66
2023/12/10 07:55:43;;;;;;;0.00;0.00;;;8.50;99.90;;;;;;6183683;23;20013;-67
2023/12/10 07:58:09;;;;;;;1.13;1.13;;;8.50;99.90;;;;;;6182278;23;20012;-66
2023/12/10 08:00:34;;;;;;;0.68;0.55;;;8.50;99.90;;;;;;6183119;23;20020;-68
2023/12/10 08:03:00;;;;;;;0.10;0.10;;;8.50;99.90;;;;;;6182074;23;20071;-68
2023/12/10 08:05:25;;;;;;;0.63;0.52;;;8.50;99.90;;;;;;6184412;23;20039;-66
2023/12/10 08:07:51;;;;;;;1.23;0.38;;;8.50;99.90;;;;;;6211904;23;20477;-69
2023/12/10 08:10:18;;;;;;;0.00;0.00;;;8.50;99.90;;;;;;6212477;23;20126;-68
2023/12/10 08:12:44;;;;;;;0.45;0.28;;;8.50;99.90;;;;;;6210448;23;20050;-69
2023/12/10 08:15:10;;;;;;;0.50;0.50;;;8.40;99.90;;;;;;6185632;23;20095;-67
2023/12/10 08:17:36;;;;;;;1.55;0.70;;;8.40;99.90;;;;;;6184204;23;20613;-68
2023/12/10 08:20:02;;;;;;;2.53;1.42;;;8.30;99.90;;;;;;6185005;23;20020;-69
2023/12/10 08:22:28;;;;;;;8.60;1.17;;;8.30;99.90;;;;;;6185055;23;20103;-67
2023/12/10 08:24:54;;;;;;;0.20;0.20;;;8.20;99.90;;;;;;6211080;23;20055;-68
2023/12/10 08:27:19;;;;;;;0.05;0.05;;;8.30;99.90;;;;;;6186780;23;20027;-69
2023/12/10 08:29:45;;;;;;;9.25;1.48;;;8.30;99.90;;;;;;6186176;23;20012;-68
2023/12/10 08:32:11;;;;;;;0.32;0.32;;;8.40;99.90;;;;;;6185913;23;20015;-68
2023/12/10 08:34:36;;;;;;;0.10;0.10;;;8.50;99.90;;;;;;6186164;23;20015;-69
2023/12/10 08:37:03;;;;;;;0.55;0.55;;;8.40;99.90;;;;;;6187396;23;20009;-71
2023/12/10 08:39:33;;;;;;;0.20;0.20;;;8.40;99.90;;;;;;6186040;23;20451;-68
2023/12/10 08:41:59;;;;;;;0.60;0.60;;;8.40;99.90;;;;;;6186918;23;20071;-70
2023/12/10 08:44:25;;;;;;;2.63;1.00;;;8.40;99.90;;;;;;6186048;23;20012;-68
2023/12/10 08:46:51;;;;;;;0.55;0.55;;;8.40;99.90;;;;;;6187831;23;20023;-69
2023/12/10 08:49:17;;;;;;;1.05;0.52;;;8.50;99.90;;;;;;6185370;23;20340;-70
2023/12/10 08:51:49;;;;;;;1.17;0.40;;;8.40;99.90;;;;;;6187169;23;20019;-68
2023/12/10 08:54:28;;;;;;;0.30;0.20;;;8.40;99.90;;;;;;6212925;23;20331;-71
2023/12/10 08:56:53;;;;;;;9.07;1.38;;;8.40;99.90;;;;;;6214011;23;20086;-68
2023/12/10 08:59:19;;;;;;;0.20;0.20;;;8.30;99.90;;;;;;6186513;23;20012;-68
2023/12/10 09:01:44;;;;;;;0.32;0.32;;;8.30;99.90;;;;;;6186212;23;20012;-67
2023/12/10 09:04:10;;;;;;;0.15;0.15;;;8.20;99.90;;;;;;6213629;23;20390;-67
2023/12/10 09:06:35;;;;;;;3.35;0.60;;;8.20;99.90;;;;;;6185679;23;20565;-67
2023/12/10 09:09:01;;;;;;;15.88;0.85;;;8.20;99.90;;;;;;6188093;23;20088;-69
2023/12/10 09:11:27;;;;;;;10.73;0.38;;;8.20;99.90;;;;;;6214137;23;20044;-68
2023/12/10 09:13:52;;;;;;;1.15;1.02;;;8.20;99.90;;;;;;6185528;23;20024;-68
2023/12/10 09:16:20;;;;;;;2.03;1.05;;;8.10;99.90;;;;;;6212530;23;20499;-68
2023/12/10 09:18:45;;;;;;;0.10;0.10;;;8.20;99.90;;;;;;6160585;23;20016;-68
2023/12/10 09:21:11;;;;;;;2.08;0.88;;;8.10;99.90;;;;;;6184292;23;20009;-68
2023/12/10 09:23:37;;;;;;;0.28;0.28;;;8.20;99.90;;;;;;6185395;23;20383;-68
2023/12/10 09:26:03;;;;;;;6.35;0.20;;;8.20;99.90;;;;;;6183948;23;20470;-68
2023/12/10 09:28:28;;;;;;;0.85;0.85;;;8.20;99.90;;;;;;6184183;23;20016;-69
2023/12/10 09:30:54;;;;;;;0.90;0.90;;;8.20;99.90;;;;;;6211000;23;20020;-67
2023/12/10 09:33:20;;;;;;;6.43;0.32;;;8.30;99.90;;;;;;6184195;23;20017;-69
2023/12/10 09:35:45;;;;;;;5.03;1.08;;;8.30;99.90;;;;;;6185377;23;20032;-70
2023/12/10 09:38:11;;;;;;;0.30;0.30;;;8.40;99.90;;;;;;6211544;23;20017;-69
2023/12/10 09:40:38;;;;;;;1.60;1.00;;;8.30;99.90;;;;;;6183706;23;20447;-67
2023/12/10 09:43:04;;;;;;;2.20;0.60;;;8.30;99.90;;;;;;6184493;23;20145;-69
2023/12/10 09:45:29;;;;;;;0.22;0.15;;;8.30;99.90;;;;;;6185918;23;20013;-70
2023/12/10 09:47:55;;;;;;;0.17;0.17;;;8.30;99.90;;;;;;6186644;23;20409;-68
2023/12/10 09:50:23;;;;;;;0.38;0.20;;;8.30;99.90;;;;;;6186313;23;20475;-69
2023/12/10 09:52:49;;;;;;;3.03;1.27;;;8.30;99.90;;;;;;6186194;23;20048;-69
2023/12/10 09:55:15;;;;;;;0.38;0.38;;;8.30;99.90;;;;;;6185923;23;20471;-68
2023/12/10 09:57:41;;;;;;;0.30;0.30;;;8.30;99.90;;;;;;6185888;23;20013;-70
2023/12/10 10:00:06;;;;;;;6.28;1.60;;;8.30;99.90;;;;;;6183901;23;20019;-68
2023/12/10 10:02:36;;;;;;;1.02;0.73;;;8.40;99.90;;;;;;6185112;23;20016;-70
2023/12/10 10:05:05;;;;;;;0.17;0.17;;;8.30;99.90;;;;;;6185457;23;20024;-69
2023/12/10 10:07:31;;;;;;;1.20;0.73;;;8.30;99.90;;;;;;6185875;23;20087;-69
2023/12/10 10:09:56;;;;;;;0.50;0.50;;;8.40;99.90;;;;;;6183756;23;20403;-70
2023/12/10 10:12:28;;;;;;;0.85;0.82;;;8.40;99.90;;;;;;6185665;23;20502;-72
2023/12/10 10:14:55;;;;;;;0.98;0.98;;;8.40;99.90;;;;;;6186071;23;20100;-72
2023/12/10 10:17:27;;;;;;;1.13;1.08;;;8.50;99.90;;;;;;6184628;23;20379;-68
2023/12/10 10:19:54;;;;;;;0.00;0.00;;;8.60;99.90;;;;;;6185671;23;20017;-70
2023/12/10 10:22:22;;;;;;;0.25;0.20;;;8.50;99.90;;;;;;6210705;23;20024;-67
2023/12/10 10:24:48;;;;;;;27.95;2.35;;;8.60;99.90;;;;;;6186013;23;20016;-67
2023/12/10 10:27:17;;;;;;;0.10;0.10;;;8.60;99.90;;;;;;6183533;23;20019;-68
2023/12/10 10:29:43;;;;;;;0.50;0.50;;;8.60;99.90;;;;;;6212060;23;20020;-69
2023/12/10 10:32:15;;;;;;;3.10;1.58;;;8.60;99.90;;;;;;6184794;23;20009;-69
2023/12/10 10:34:50;;;;;;;1.55;0.55;;;8.60;99.90;;;;;;6184840;23;20440;-68
2023/12/10 10:37:17;;;;;;;0.10;0.10;;;8.60;99.90;;;;;;6185843;23;20008;-68
2023/12/10 10:39:49;;;;;;;0.10;0.10;;;8.60;99.90;;;;;;6185157;23;20091;-66
2023/12/10 10:42:18;;;;;;;1.20;0.65;;;8.70;99.90;;;;;;6185335;23;20390;-67
2023/12/10 10:44:43;;;;;;;0.20;0.20;;;8.70;99.90;;;;;;6157695;23;20020;-70
2023/12/10 10:47:09;;;;;;;1.65;1.55;;;8.70;99.90;;;;;;6184970;23;20091;-70
2023/12/10 10:49:38;;;;;;;0.30;0.20;;;8.70;99.90;;;;;;6212743;23;20317;-68
2023/12/10 10:52:08;;;;;;;2.10;0.77;;;8.70;99.90;;;;;;6185880;23;20008;-67
2023/12/10 10:54:35;;;;;;;0.20;0.20;;;8.70;99.90;;;;;;6184313;23;20514;-72
2023/12/10 10:57:01;;;;;;;0.63;0.63;;;8.70;99.90;;;;;;6183504;23;20297;-70
2023/12/10 10:59:29;;;;;;;0.30;0.30;;;8.80;99.90;;;;;;6212824;23;20013;-70
2023/12/10 11:01:54;;;;;;;2.80;0.30;;;8.80;99.90;;;;;;6184712;23;20023;-70
2023/12/10 11:04:21;;;;;;;3.05;0.60;;;8.80;99.90;;;;;;6212668;23;20012;-68
2023/12/10 11:06:50;;;;;;;0.40;0.40;;;8.80;99.90;;;;;;6186427;23;20043;-70
2023/12/10 11:09:16;;;;;;;16.35;0.55;;;8.80;99.90;;;;;;6209781;23;20428;-71
2023/12/10 11:11:42;;;;;;;0.13;0.13;;;8.90;99.90;;;;;;6213097;23;20436;-68
2023/12/10 11:14:19;;;;;;;0.82;0.77;;;8.90;99.90;;;;;;6185031;23;20016;-68
2023/12/10 11:16:48;;;;;;;1.48;0.85;;;8.90;99.90;;;;;;6213316;23;20008;-67
2023/12/10 11:19:17;;;;;;;1.75;0.45;;;8.90;99.90;;;;;;6186459;23;20428;-70
2023/12/10 11:21:43;;;;;;;0.10;0.10;;;8.90;99.90;;;;;;6212847;23;20012;-72
2023/12/10 11:24:08;;;;;;;0.68;0.32;;;8.90;99.90;;;;;;6184707;23;20016;-68
2023/12/10 11:26:34;;;;;;;0.60;0.15;;;8.90;99.90;;;;;;6211755;23;20017;-71
2023/12/10 11:29:02;;;;;;;10.98;1.50;;;8.90;99.90;;;;;;6160934;23;20012;-69
2023/12/10 11:31:28;;;;;;;4.38;1.38;;;8.90;99.90;;;;;;6184632;23;20087;-70
2023/12/10 11:33:53;;;;;;;0.20;0.20;;;8.90;99.90;;;;;;6186605;23;20008;-70
2023/12/10 11:36:19;;;;;;;1.52;1.45;;;9.00;99.90;;;;;;6211471;23;20020;-69
2023/12/10 11:38:49;;;;;;;0.32;0.32;;;9.00;99.90;;;;;;6185265;23;20008;-70
2023/12/10 11:41:16;;;;;;;0.28;0.28;;;8.90;99.90;;;;;;6161059;23;20438;-71
2023/12/10 11:43:45;;;;;;;0.57;0.57;;;8.90;99.90;;;;;;6185044;23;20067;-73
2023/12/10 11:46:21;;;;;;;13.98;0.77;;;8.70;99.90;;;;;;6159771;23;20055;-69
2023/12/10 11:48:53;;;;;;;9.88;3.10;;;8.70;99.90;;;;;;6161129;23;20016;-67
2023/12/10 11:51:20;;;;;;;;;;;8.80;99.90;;;;;;6186191;23;20016;-71
2023/12/10 11:53:46;;;;;;;0.38;0.38;;;8.70;99.90;;;;;;6184725;23;19916;-71
2023/12/10 11:56:12;;;;;;;1.30;0.55;;;8.70;99.90;;;;;;6184130;23;20013;-71
2023/12/10 11:58:38;;;;;;;3.70;0.10;;;8.60;99.90;;;;;;6186651;23;20459;-71
2023/12/10 12:01:03;;;;;;;2.75;0.55;;;8.70;99.90;;;;;;6187025;23;20013;-72
2023/12/10 12:03:30;;;;;;;0.20;0.20;;;8.70;99.90;;;;;;6185898;23;20016;-73
2023/12/10 12:05:56;;;;;;;3.20;1.55;;;8.70;99.90;;;;;;6213614;23;20642;-72
2023/12/10 12:08:26;;;;;;;0.20;0.20;;;8.70;99.90;;;;;;6186536;23;20027;-73
2023/12/10 12:10:52;;;;;;;6.40;0.68;;;8.80;99.90;;;;;;6187561;23;20017;-70
2023/12/10 12:13:17;;;;;;;2.28;0.52;;;8.70;99.90;;;;;;6186646;23;20432;-75
2023/12/10 12:15:49;;;;;;;14.68;0.45;;;8.80;99.90;;;;;;6213966;23;20074;-71
2023/12/10 12:18:15;;;;;;;0.10;0.10;;;8.80;99.90;;;;;;6187592;23;20451;-69
2023/12/10 12:20:41;;;;;;;0.10;0.10;;;8.80;99.90;;;;;;6215088;23;20019;-70
2023/12/10 12:23:07;;;;;;;0.10;0.10;;;8.70;99.90;;;;;;6186137;23;20016;-72
2023/12/10 12:25:37;;;;;;;0.20;0.20;;;8.70;99.90;;;;;;6188620;23;20063;-72
2023/12/10 12:28:08;;;;;;;0.00;0.00;;;8.70;99.90;;;;;;6214343;23;20012;-73
2023/12/10 12:30:35;;;;;;;0.38;0.38;;;8.70;99.90;;;;;;6184061;23;20021;-70
2023/12/10 12:33:01;;;;;;;2.63;0.52;;;8.70;99.90;;;;;;6186015;23;20009;-72
2023/12/10 12:35:27;;;;;;;0.77;0.77;;;8.70;99.90;;;;;;6184927;23;20024;-74
2023/12/10 12:37:54;;;;;;;0.20;0.20;;;8.70;99.90;;;;;;6187371;23;20054;-70
2023/12/10 12:40:20;;;;;;;0.10;0.10;;;8.70;99.90;;;;;;6185685;23;20020;-69
2023/12/10 12:42:48;;;;;;;0.10;0.10;;;8.70;99.90;;;;;;6186848;23;20023;-72
2023/12/10 12:45:16;;;;;;;2.92;0.95;;;8.70;99.90;;;;;;6213159;23;20392;-71
2023/12/10 12:47:43;;;;;;;2.35;0.32;;;8.70;99.90;;;;;;6214725;23;20020;-68
2023/12/10 12:50:08;;;;;;;0.10;0.10;;;8.70;99.90;;;;;;6213662;23;20015;-73
2023/12/10 12:52:34;;;;;;;0.73;0.47;;;8.70;99.90;;;;;;6214113;23;20012;-68